sensor_id;sensor_type;location;lat;lon;timestamp;pressure;altitude;pressure_sealevel;temperature;humidity
23170;BME280;11753;43.144;24.714;2023-02-04T00:00:21;99410.00;;;4.44;87.53
23170;BME280;11753;43.144;24.714;2023-02-04T00:01:23;99399.44;;;4.46;87.54
23170;BME280;11753;43.144;24.714;2023-02-04T00:02:24;99396.59;;;4.49;87.26
23170;BME280;11753;43.144;24.714;2023-02-04T00:03:25;99392.59;;;4.45;87.34
23170;BME280;11753;43.144;24.714;2023-02-04T00:04:26;99391.41;;;4.37;87.04
23170;BME280;11753;43.144;24.714;2023-02-04T00:05:27;99392.22;;;4.38;87.25
23170;BME280;11753;43.144;24.714;2023-02-04T00:06:28;99389.75;;;4.36;87.04
23170;BME280;11753;43.144;24.714;2023-02-04T00:07:31;99390.31;;;4.40;87.31
23170;BME280;11753;43.144;24.714;2023-02-04T00:08:32;99388.56;;;4.29;87.25
23170;BME280;11753;43.144;24.714;2023-02-04T00:09:33;99389.13;;;4.33;87.52
23170;BME280;11753;43.144;24.714;2023-02-04T00:10:35;99384.53;;;4.36;87.43
23170;BME280;11753;43.144;24.714;2023-02-04T00:11:36;99380.38;;;4.34;87.29
23170;BME280;11753;43.144;24.714;2023-02-04T00:12:37;99378.72;;;4.33;87.52
23170;BME280;11753;43.144;24.714;2023-02-04T00:13:38;99371.59;;;4.35;87.42
23170;BME280;11753;43.144;24.714;2023-02-04T00:14:39;99374.94;;;4.37;87.41
23170;BME280;11753;43.144;24.714;2023-02-04T00:15:40;99375.88;;;4.36;87.74
23170;BME280;11753;43.144;24.714;2023-02-04T00:16:41;99368.28;;;4.33;87.94
23170;BME280;11753;43.144;24.714;2023-02-04T00:17:42;99369.94;;;4.34;88.07
23170;BME280;11753;43.144;24.714;2023-02-04T00:18:43;99373.16;;;4.37;88.09
23170;BME280;11753;43.144;24.714;2023-02-04T00:19:44;99367.72;;;4.29;88.32
23170;BME280;11753;43.144;24.714;2023-02-04T00:20:45;99362.50;;;4.29;88.43
23170;BME280;11753;43.144;24.714;2023-02-04T00:21:46;99363.22;;;4.31;88.46
23170;BME280;11753;43.144;24.714;2023-02-04T00:22:48;99366.50;;;4.33;88.68
23170;BME280;11753;43.144;24.714;2023-02-04T00:23:49;99364.59;;;4.35;88.81
23170;BME280;11753;43.144;24.714;2023-02-04T00:24:50;99362.94;;;4.34;88.85
23170;BME280;11753;43.144;24.714;2023-02-04T00:25:51;99360.13;;;4.37;89.08
23170;BME280;11753;43.144;24.714;2023-02-04T00:26:52;99353.97;;;4.27;89.47
23170;BME280;11753;43.144;24.714;2023-02-04T00:27:53;99352.31;;;4.26;89.97
23170;BME280;11753;43.144;24.714;2023-02-04T00:28:54;99346.88;;;4.29;90.07
23170;BME280;11753;43.144;24.714;2023-02-04T00:29:55;99352.53;;;4.34;89.90
23170;BME280;11753;43.144;24.714;2023-02-04T00:30:57;99346.38;;;4.35;89.87
23170;BME280;11753;43.144;24.714;2023-02-04T00:31:58;99348.75;;;4.38;89.90
23170;BME280;11753;43.144;24.714;2023-02-04T00:32:59;99345.19;;;4.39;90.22
23170;BME280;11753;43.144;24.714;2023-02-04T00:34:00;99338.09;;;4.30;90.56
23170;BME280;11753;43.144;24.714;2023-02-04T00:35:01;99337.88;;;4.22;91.06
23170;BME280;11753;43.144;24.714;2023-02-04T00:36:04;99335.00;;;4.25;91.39
23170;BME280;11753;43.144;24.714;2023-02-04T00:37:06;99332.53;;;4.24;91.58
23170;BME280;11753;43.144;24.714;2023-02-04T00:38:07;99328.72;;;4.28;91.65
23170;BME280;11753;43.144;24.714;2023-02-04T00:39:08;99324.59;;;4.25;91.98
23170;BME280;11753;43.144;24.714;2023-02-04T00:40:09;99324.34;;;4.28;91.78
23170;BME280;11753;43.144;24.714;2023-02-04T00:41:11;99317.94;;;4.21;92.30
23170;BME280;11753;43.144;24.714;2023-02-04T00:42:12;99316.31;;;4.20;92.55
23170;BME280;11753;43.144;24.714;2023-02-04T00:43:13;99308.25;;;4.23;92.79
23170;BME280;11753;43.144;24.714;2023-02-04T00:44:13;99317.72;;;4.24;92.90
23170;BME280;11753;43.144;24.714;2023-02-04T00:45:15;99314.53;;;4.32;92.86
23170;BME280;11753;43.144;24.714;2023-02-04T00:46:15;99313.56;;;4.33;92.63
23170;BME280;11753;43.144;24.714;2023-02-04T00:47:16;99306.09;;;4.28;92.87
23170;BME280;11753;43.144;24.714;2023-02-04T00:48:17;99305.88;;;4.31;92.70
23170;BME280;11753;43.144;24.714;2023-02-04T00:49:18;99303.28;;;4.31;93.20
23170;BME280;11753;43.144;24.714;2023-02-04T00:50:19;99296.41;;;4.30;93.28
23170;BME280;11753;43.144;24.714;2023-02-04T00:51:20;99302.44;;;4.31;93.32
23170;BME280;11753;43.144;24.714;2023-02-04T00:52:24;99300.53;;;4.33;93.25
23170;BME280;11753;43.144;24.714;2023-02-04T00:53:24;99290.94;;;4.33;93.37
23170;BME280;11753;43.144;24.714;2023-02-04T00:54:26;99283.25;;;4.32;93.41
23170;BME280;11753;43.144;24.714;2023-02-04T00:55:27;99275.56;;;4.30;93.51
23170;BME280;11753;43.144;24.714;2023-02-04T00:56:28;99269.19;;;4.23;93.79
23170;BME280;11753;43.144;24.714;2023-02-04T00:57:29;99262.66;;;4.29;93.72
23170;BME280;11753;43.144;24.714;2023-02-04T00:58:30;99263.09;;;4.34;93.68
23170;BME280;11753;43.144;24.714;2023-02-04T00:59:31;99255.19;;;4.24;94.21
23170;BME280;11753;43.144;24.714;2023-02-04T01:00:32;99258.97;;;4.20;94.02
23170;BME280;11753;43.144;24.714;2023-02-04T01:01:33;99253.41;;;4.13;94.80
23170;BME280;11753;43.144;24.714;2023-02-04T01:02:34;99243.97;;;4.12;94.98
23170;BME280;11753;43.144;24.714;2023-02-04T01:03:35;99246.47;;;4.03;95.55
23170;BME280;11753;43.144;24.714;2023-02-04T01:04:37;99247.88;;;4.07;95.35
23170;BME280;11753;43.144;24.714;2023-02-04T01:05:38;99250.94;;;4.12;95.38
23170;BME280;11753;43.144;24.714;2023-02-04T01:06:39;99244.56;;;4.05;95.29
23170;BME280;11753;43.144;24.714;2023-02-04T01:07:40;99242.66;;;4.07;95.27
23170;BME280;11753;43.144;24.714;2023-02-04T01:08:44;99234.41;;;4.02;95.60
23170;BME280;11753;43.144;24.714;2023-02-04T01:09:49;99235.56;;;4.09;95.49
23170;BME280;11753;43.144;24.714;2023-02-04T01:10:50;99232.47;;;4.15;94.97
23170;BME280;11753;43.144;24.714;2023-02-04T01:11:51;99235.56;;;4.09;95.22
23170;BME280;11753;43.144;24.714;2023-02-04T01:12:55;99224.91;;;4.12;95.10
23170;BME280;11753;43.144;24.714;2023-02-04T01:13:56;99221.09;;;4.16;95.00
23170;BME280;11753;43.144;24.714;2023-02-04T01:14:58;99218.50;;;4.16;94.92
23170;BME280;11753;43.144;24.714;2023-02-04T01:15:59;99205.72;;;4.13;94.81
23170;BME280;11753;43.144;24.714;2023-02-04T01:17:00;99201.66;;;4.20;94.82
23170;BME280;11753;43.144;24.714;2023-02-04T01:18:01;99205.97;;;4.10;94.89
23170;BME280;11753;43.144;24.714;2023-02-04T01:19:03;99203.47;;;4.08;94.75
23170;BME280;11753;43.144;24.714;2023-02-04T01:20:04;99203.09;;;4.13;94.93
23170;BME280;11753;43.144;24.714;2023-02-04T01:21:05;99189.63;;;4.08;95.03
23170;BME280;11753;43.144;24.714;2023-02-04T01:22:06;99207.53;;;4.01;95.22
23170;BME280;11753;43.144;24.714;2023-02-04T01:23:07;99194.72;;;3.98;95.55
23170;BME280;11753;43.144;24.714;2023-02-04T01:24:08;99199.31;;;4.06;95.56
23170;BME280;11753;43.144;24.714;2023-02-04T01:25:10;99194.84;;;4.08;95.24
23170;BME280;11753;43.144;24.714;2023-02-04T01:26:11;99194.84;;;4.08;95.66
23170;BME280;11753;43.144;24.714;2023-02-04T01:27:12;99188.91;;;4.06;95.51
23170;BME280;11753;43.144;24.714;2023-02-04T01:28:13;99194.94;;;4.06;95.44
23170;BME280;11753;43.144;24.714;2023-02-04T01:29:14;99184.28;;;4.09;95.70
23170;BME280;11753;43.144;24.714;2023-02-04T01:30:15;99182.06;;;4.05;95.74
23170;BME280;11753;43.144;24.714;2023-02-04T01:31:16;99182.66;;;4.08;95.50
23170;BME280;11753;43.144;24.714;2023-02-04T01:32:17;99165.44;;;4.17;95.43
23170;BME280;11753;43.144;24.714;2023-02-04T01:33:18;99170.06;;;4.13;95.38
23170;BME280;11753;43.144;24.714;2023-02-04T01:34:19;99165.66;;;4.14;95.45
23170;BME280;11753;43.144;24.714;2023-02-04T01:35:20;99163.78;;;4.16;95.28
23170;BME280;11753;43.144;24.714;2023-02-04T01:36:21;99164.16;;;4.11;95.43
23170;BME280;11753;43.144;24.714;2023-02-04T01:37:22;99161.41;;;4.13;95.52
23170;BME280;11753;43.144;24.714;2023-02-04T01:38:23;99159.28;;;4.18;95.46
23170;BME280;11753;43.144;24.714;2023-02-04T01:39:26;99156.94;;;4.15;95.69
23170;BME280;11753;43.144;24.714;2023-02-04T01:40:27;99157.03;;;4.13;95.82
23170;BME280;11753;43.144;24.714;2023-02-04T01:41:28;99155.66;;;4.09;95.90
23170;BME280;11753;43.144;24.714;2023-02-04T01:42:29;99163.06;;;4.14;96.08
23170;BME280;11753;43.144;24.714;2023-02-04T01:43:30;99162.84;;;4.17;95.97
23170;BME280;11753;43.144;24.714;2023-02-04T01:44:32;99156.94;;;4.15;95.85
23170;BME280;11753;43.144;24.714;2023-02-04T01:45:33;99160.22;;;4.17;95.80
23170;BME280;11753;43.144;24.714;2023-02-04T01:46:35;99162.16;;;4.15;95.99
23170;BME280;11753;43.144;24.714;2023-02-04T01:47:37;99150.03;;;4.14;96.14
23170;BME280;11753;43.144;24.714;2023-02-04T01:48:40;99153.72;;;4.11;96.30
23170;BME280;11753;43.144;24.714;2023-02-04T01:49:41;99155.78;;;4.08;96.75
23170;BME280;11753;43.144;24.714;2023-02-04T01:50:42;99154.31;;;4.15;96.69
23170;BME280;11753;43.144;24.714;2023-02-04T01:51:43;99154.06;;;4.18;96.35
23170;BME280;11753;43.144;24.714;2023-02-04T01:52:45;99153.81;;;4.21;96.39
23170;BME280;11753;43.144;24.714;2023-02-04T01:53:46;99150.28;;;4.22;96.39
23170;BME280;11753;43.144;24.714;2023-02-04T01:54:47;99148.59;;;4.21;96.32
23170;BME280;11753;43.144;24.714;2023-02-04T01:55:49;99150.00;;;4.25;96.40
23170;BME280;11753;43.144;24.714;2023-02-04T01:56:51;99156.75;;;4.28;96.16
23170;BME280;11753;43.144;24.714;2023-02-04T01:57:54;99148.56;;;4.32;96.06
23170;BME280;11753;43.144;24.714;2023-02-04T01:58:58;99155.19;;;4.36;95.87
23170;BME280;11753;43.144;24.714;2023-02-04T01:59:59;99151.88;;;4.34;95.93
23170;BME280;11753;43.144;24.714;2023-02-04T02:01:00;99153.28;;;4.38;95.77
23170;BME280;11753;43.144;24.714;2023-02-04T02:02:01;99152.19;;;4.41;95.64
23170;BME280;11753;43.144;24.714;2023-02-04T02:03:02;99151.13;;;4.44;95.64
23170;BME280;11753;43.144;24.714;2023-02-04T02:04:04;99146.97;;;4.41;95.71
23170;BME280;11753;43.144;24.714;2023-02-04T02:05:08;99148.53;;;4.44;95.60
23170;BME280;11753;43.144;24.714;2023-02-04T02:06:10;99147.81;;;4.41;95.42
23170;BME280;11753;43.144;24.714;2023-02-04T02:07:11;99142.84;;;4.38;95.36
23170;BME280;11753;43.144;24.714;2023-02-04T02:08:13;99143.56;;;4.40;95.25
23170;BME280;11753;43.144;24.714;2023-02-04T02:09:14;99139.75;;;4.45;95.36
23170;BME280;11753;43.144;24.714;2023-02-04T02:10:16;99140.94;;;4.40;95.32
23170;BME280;11753;43.144;24.714;2023-02-04T02:11:18;99140.72;;;4.44;95.17
23170;BME280;11753;43.144;24.714;2023-02-04T02:12:20;99137.16;;;4.45;95.17
23170;BME280;11753;43.144;24.714;2023-02-04T02:13:21;99136.19;;;4.46;94.97
23170;BME280;11753;43.144;24.714;2023-02-04T02:14:22;99137.56;;;4.50;95.15
23170;BME280;11753;43.144;24.714;2023-02-04T02:15:23;99137.16;;;4.45;95.03
23170;BME280;11753;43.144;24.714;2023-02-04T02:16:25;99135.59;;;4.42;94.68
23170;BME280;11753;43.144;24.714;2023-02-04T02:17:26;99141.03;;;4.50;94.80
23170;BME280;11753;43.144;24.714;2023-02-04T02:18:27;99142.56;;;4.53;94.51
23170;BME280;11753;43.144;24.714;2023-02-04T02:19:33;99143.94;;;4.57;94.52
23170;BME280;11753;43.144;24.714;2023-02-04T02:20:36;99143.00;;;4.58;94.54
23170;BME280;11753;43.144;24.714;2023-02-04T02:21:42;99140.81;;;4.63;94.39
23170;BME280;11753;43.144;24.714;2023-02-04T02:23:53;99147.69;;;4.64;93.97
23170;BME280;11753;43.144;24.714;2023-02-04T02:24:56;99138.94;;;4.65;94.14
23170;BME280;11753;43.144;24.714;2023-02-04T02:25:57;99142.94;;;4.69;93.96
23170;BME280;11753;43.144;24.714;2023-02-04T02:27:01;99144.22;;;4.75;93.78
23170;BME280;11753;43.144;24.714;2023-02-04T02:28:06;99143.84;;;4.79;93.42
23170;BME280;11753;43.144;24.714;2023-02-04T02:29:07;99143.53;;;4.73;93.71
23170;BME280;11753;43.144;24.714;2023-02-04T02:30:09;99142.25;;;4.67;93.49
23170;BME280;11753;43.144;24.714;2023-02-04T02:31:11;99142.06;;;4.59;94.28
23170;BME280;11753;43.144;24.714;2023-02-04T02:32:13;99139.56;;;4.57;94.32
23170;BME280;11753;43.144;24.714;2023-02-04T02:33:15;99136.97;;;4.57;94.55
23170;BME280;11753;43.144;24.714;2023-02-04T02:34:17;99140.81;;;4.63;94.47
23170;BME280;11753;43.144;24.714;2023-02-04T02:35:18;99134.56;;;4.65;94.26
23170;BME280;11753;43.144;24.714;2023-02-04T02:36:20;99135.25;;;4.67;94.49
23170;BME280;11753;43.144;24.714;2023-02-04T02:37:22;99135.38;;;4.66;94.42
23170;BME280;11753;43.144;24.714;2023-02-04T02:38:24;99127.97;;;4.71;94.43
23170;BME280;11753;43.144;24.714;2023-02-04T02:39:25;99129.66;;;4.72;94.54
23170;BME280;11753;43.144;24.714;2023-02-04T02:40:26;99128.56;;;4.75;94.23
23170;BME280;11753;43.144;24.714;2023-02-04T02:41:27;99128.28;;;4.78;94.24
23170;BME280;11753;43.144;24.714;2023-02-04T02:42:28;99121.75;;;4.83;93.72
23170;BME280;11753;43.144;24.714;2023-02-04T02:43:30;99125.63;;;4.89;93.57
23170;BME280;11753;43.144;24.714;2023-02-04T02:44:32;99120.03;;;4.93;93.19
23170;BME280;11753;43.144;24.714;2023-02-04T02:45:33;99115.75;;;4.92;92.94
23170;BME280;11753;43.144;24.714;2023-02-04T02:46:35;99116.88;;;5.00;92.52
23170;BME280;11753;43.144;24.714;2023-02-04T02:47:36;99120.44;;;4.98;92.60
23170;BME280;11753;43.144;24.714;2023-02-04T02:48:37;99125.16;;;5.05;92.23
23170;BME280;11753;43.144;24.714;2023-02-04T02:49:38;99127.06;;;5.03;91.81
23170;BME280;11753;43.144;24.714;2023-02-04T02:50:41;99125.72;;;5.08;91.79
23170;BME280;11753;43.144;24.714;2023-02-04T02:51:43;99121.34;;;5.09;91.77
23170;BME280;11753;43.144;24.714;2023-02-04T02:52:45;99125.84;;;5.07;91.96
23170;BME280;11753;43.144;24.714;2023-02-04T02:53:46;99126.28;;;5.12;91.88
23170;BME280;11753;43.144;24.714;2023-02-04T02:54:49;99130.28;;;5.16;91.91
23170;BME280;11753;43.144;24.714;2023-02-04T02:55:50;99138.81;;;5.18;91.71
23170;BME280;11753;43.144;24.714;2023-02-04T02:56:52;99142.94;;;5.20;90.92
23170;BME280;11753;43.144;24.714;2023-02-04T02:57:54;99126.13;;;5.04;88.41
23170;BME280;11753;43.144;24.714;2023-02-04T02:58:56;99134.06;;;5.02;87.97
23170;BME280;11753;43.144;24.714;2023-02-04T02:59:56;99138.06;;;5.06;86.58
23170;BME280;11753;43.144;24.714;2023-02-04T03:01:04;99126.03;;;5.15;87.00
23170;BME280;11753;43.144;24.714;2023-02-04T03:02:06;99135.91;;;5.11;88.17
23170;BME280;11753;43.144;24.714;2023-02-04T03:03:15;99135.22;;;5.09;88.27
23170;BME280;11753;43.144;24.714;2023-02-04T03:04:18;99142.59;;;5.04;88.69
23170;BME280;11753;43.144;24.714;2023-02-04T03:05:20;99128.78;;;4.92;89.25
23170;BME280;11753;43.144;24.714;2023-02-04T03:06:23;99123.97;;;4.88;90.40
23170;BME280;11753;43.144;24.714;2023-02-04T03:07:26;99140.31;;;4.69;91.53
23170;BME280;11753;43.144;24.714;2023-02-04T03:08:27;99124.00;;;4.67;91.56
23170;BME280;11753;43.144;24.714;2023-02-04T03:09:28;99134.56;;;4.65;92.25
23170;BME280;11753;43.144;24.714;2023-02-04T03:10:30;99127.69;;;4.64;93.94
23170;BME280;11753;43.144;24.714;2023-02-04T03:11:34;99118.25;;;4.73;93.84
23170;BME280;11753;43.144;24.714;2023-02-04T03:12:35;99125.78;;;4.66;94.02
23170;BME280;11753;43.144;24.714;2023-02-04T03:13:37;99121.25;;;4.48;94.96
23170;BME280;11753;43.144;24.714;2023-02-04T03:14:38;99126.31;;;4.49;95.80
23170;BME280;11753;43.144;24.714;2023-02-04T03:15:40;99122.69;;;4.40;96.13
23170;BME280;11753;43.144;24.714;2023-02-04T03:16:43;99111.31;;;4.41;96.42
23170;BME280;11753;43.144;24.714;2023-02-04T03:17:44;99111.00;;;4.35;96.76
23170;BME280;11753;43.144;24.714;2023-02-04T03:18:46;99114.56;;;4.34;97.56
23170;BME280;11753;43.144;24.714;2023-02-04T03:19:47;99111.09;;;4.45;97.72
23170;BME280;11753;43.144;24.714;2023-02-04T03:20:50;99109.88;;;4.49;97.72
23170;BME280;11753;43.144;24.714;2023-02-04T03:21:52;99111.00;;;4.56;97.70
23170;BME280;11753;43.144;24.714;2023-02-04T03:22:54;99108.16;;;4.59;97.52
23170;BME280;11753;43.144;24.714;2023-02-04T03:23:56;99097.47;;;4.62;96.93
23170;BME280;11753;43.144;24.714;2023-02-04T03:24:57;99090.34;;;4.64;97.02
23170;BME280;11753;43.144;24.714;2023-02-04T03:25:58;99090.09;;;4.67;96.79
23170;BME280;11753;43.144;24.714;2023-02-04T03:26:59;99082.97;;;4.69;96.96
23170;BME280;11753;43.144;24.714;2023-02-04T03:28:00;99086.25;;;4.71;96.85
23170;BME280;11753;43.144;24.714;2023-02-04T03:29:01;99082.28;;;4.67;96.66
23170;BME280;11753;43.144;24.714;2023-02-04T03:30:01;99083.66;;;4.71;96.89
23170;BME280;11753;43.144;24.714;2023-02-04T03:31:02;99072.53;;;4.69;96.84
23170;BME280;11753;43.144;24.714;2023-02-04T03:32:03;99084.59;;;4.70;96.72
23170;BME280;11753;43.144;24.714;2023-02-04T03:33:05;99081.31;;;4.68;96.71
23170;BME280;11753;43.144;24.714;2023-02-04T03:34:06;99074.91;;;4.72;96.68
23170;BME280;11753;43.144;24.714;2023-02-04T03:35:07;99071.75;;;4.78;96.41
23170;BME280;11753;43.144;24.714;2023-02-04T03:36:08;99064.06;;;4.77;96.03
23170;BME280;11753;43.144;24.714;2023-02-04T03:37:08;99071.50;;;4.81;96.21
23170;BME280;11753;43.144;24.714;2023-02-04T03:38:09;99074.63;;;4.75;96.00
23170;BME280;11753;43.144;24.714;2023-02-04T03:39:09;99067.66;;;4.85;95.87
23170;BME280;11753;43.144;24.714;2023-02-04T03:40:10;99069.06;;;4.89;95.80
23170;BME280;11753;43.144;24.714;2023-02-04T03:41:11;99074.00;;;4.92;95.56
23170;BME280;11753;43.144;24.714;2023-02-04T03:42:12;99069.38;;;4.96;95.17
23170;BME280;11753;43.144;24.714;2023-02-04T03:43:12;99061.41;;;4.97;95.13
23170;BME280;11753;43.144;24.714;2023-02-04T03:44:13;99062.00;;;5.01;94.86
23170;BME280;11753;43.144;24.714;2023-02-04T03:45:14;99059.50;;;5.00;94.84
23170;BME280;11753;43.144;24.714;2023-02-04T03:46:15;99062.81;;;5.02;94.85
23170;BME280;11753;43.144;24.714;2023-02-04T03:47:16;99064.47;;;5.03;94.88
23170;BME280;11753;43.144;24.714;2023-02-04T03:48:17;99077.00;;;5.09;94.67
23170;BME280;11753;43.144;24.714;2023-02-04T03:49:19;99067.53;;;5.17;93.85
23170;BME280;11753;43.144;24.714;2023-02-04T03:50:20;99073.84;;;5.15;93.39
23170;BME280;11753;43.144;24.714;2023-02-04T03:51:21;99070.28;;;5.16;93.52
23170;BME280;11753;43.144;24.714;2023-02-04T03:52:22;99076.72;;;5.12;93.77
23170;BME280;11753;43.144;24.714;2023-02-04T03:53:23;99075.34;;;5.08;94.17
23170;BME280;11753;43.144;24.714;2023-02-04T03:54:24;99075.75;;;5.13;94.18
23170;BME280;11753;43.144;24.714;2023-02-04T03:55:25;99080.97;;;5.13;93.99
23170;BME280;11753;43.144;24.714;2023-02-04T03:56:26;99080.97;;;5.13;94.12
23170;BME280;11753;43.144;24.714;2023-02-04T03:57:26;99073.78;;;4.95;93.91
23170;BME280;11753;43.144;24.714;2023-02-04T03:58:27;99078.59;;;5.00;93.56
23170;BME280;11753;43.144;24.714;2023-02-04T03:59:28;99079.53;;;4.99;94.03
23170;BME280;11753;43.144;24.714;2023-02-04T04:00:29;99070.88;;;4.98;94.31
23170;BME280;11753;43.144;24.714;2023-02-04T04:01:31;99072.72;;;5.08;94.60
23170;BME280;11753;43.144;24.714;2023-02-04T04:02:32;99066.13;;;5.13;94.05
23170;BME280;11753;43.144;24.714;2023-02-04T04:03:32;99059.69;;;5.08;94.37
23170;BME280;11753;43.144;24.714;2023-02-04T04:04:36;99054.88;;;5.13;94.53
23170;BME280;11753;43.144;24.714;2023-02-04T04:05:37;99046.66;;;5.17;94.59
23170;BME280;11753;43.144;24.714;2023-02-04T04:06:38;99051.31;;;5.14;94.50
23170;BME280;11753;43.144;24.714;2023-02-04T04:07:38;99047.75;;;5.15;94.44
23170;BME280;11753;43.144;24.714;2023-02-04T04:08:39;99046.38;;;5.11;94.73
23170;BME280;11753;43.144;24.714;2023-02-04T04:09:40;99052.69;;;5.18;94.37
23170;BME280;11753;43.144;24.714;2023-02-04T04:10:40;99054.22;;;5.20;94.29
23170;BME280;11753;43.144;24.714;2023-02-04T04:11:41;99047.66;;;5.26;94.41
23170;BME280;11753;43.144;24.714;2023-02-04T04:12:41;99043.53;;;5.33;94.23
23170;BME280;11753;43.144;24.714;2023-02-04T04:13:42;99038.84;;;5.27;93.66
23170;BME280;11753;43.144;24.714;2023-02-04T04:14:43;99038.16;;;5.25;93.38
23170;BME280;11753;43.144;24.714;2023-02-04T04:15:44;99030.03;;;5.18;93.58
23170;BME280;11753;43.144;24.714;2023-02-04T04:16:45;99031.56;;;5.21;93.73
23170;BME280;11753;43.144;24.714;2023-02-04T04:17:46;99033.22;;;5.22;93.93
23170;BME280;11753;43.144;24.714;2023-02-04T04:18:47;99023.06;;;5.29;93.78
23170;BME280;11753;43.144;24.714;2023-02-04T04:19:48;99025.50;;;5.20;93.89
23170;BME280;11753;43.144;24.714;2023-02-04T04:20:49;99021.13;;;5.21;93.86
23170;BME280;11753;43.144;24.714;2023-02-04T04:21:58;99012.34;;;5.22;94.02
23170;BME280;11753;43.144;24.714;2023-02-04T04:22:58;99011.78;;;5.28;93.76
23170;BME280;11753;43.144;24.714;2023-02-04T04:23:59;99016.06;;;5.29;93.73
23170;BME280;11753;43.144;24.714;2023-02-04T04:24:59;99018.53;;;5.31;94.09
23170;BME280;11753;43.144;24.714;2023-02-04T04:26:00;99024.16;;;5.26;94.24
23170;BME280;11753;43.144;24.714;2023-02-04T04:27:01;99026.66;;;5.37;93.94
23170;BME280;11753;43.144;24.714;2023-02-04T04:28:01;99022.13;;;5.39;93.82
23170;BME280;11753;43.144;24.714;2023-02-04T04:29:03;99026.38;;;5.40;93.88
23170;BME280;11753;43.144;24.714;2023-02-04T04:30:04;99029.00;;;5.40;94.05
23170;BME280;11753;43.144;24.714;2023-02-04T04:31:05;99028.59;;;5.45;93.88
23170;BME280;11753;43.144;24.714;2023-02-04T04:32:06;99024.19;;;5.45;93.88
23170;BME280;11753;43.144;24.714;2023-02-04T04:33:09;99028.31;;;5.38;94.13
23170;BME280;11753;43.144;24.714;2023-02-04T04:34:10;99020.19;;;5.41;94.07
23170;BME280;11753;43.144;24.714;2023-02-04T04:35:11;99026.97;;;5.53;93.82
23170;BME280;11753;43.144;24.714;2023-02-04T04:36:12;99026.28;;;5.51;93.77
23170;BME280;11753;43.144;24.714;2023-02-04T04:37:14;99021.19;;;5.60;93.49
23170;BME280;11753;43.144;24.714;2023-02-04T04:38:15;99021.19;;;5.60;93.52
23170;BME280;11753;43.144;24.714;2023-02-04T04:39:15;99023.13;;;5.58;93.76
23170;BME280;11753;43.144;24.714;2023-02-04T04:40:17;99026.03;;;5.74;92.58
23170;BME280;11753;43.144;24.714;2023-02-04T04:41:18;99030.81;;;5.69;92.60
23170;BME280;11753;43.144;24.714;2023-02-04T04:42:19;99024.50;;;5.62;92.79
23170;BME280;11753;43.144;24.714;2023-02-04T04:43:20;99017.47;;;5.52;93.64
23170;BME280;11753;43.144;24.714;2023-02-04T04:44:21;99026.38;;;5.40;93.52
23170;BME280;11753;43.144;24.714;2023-02-04T04:45:25;99022.81;;;5.41;93.54
23170;BME280;11753;43.144;24.714;2023-02-04T04:46:26;99032.28;;;5.42;93.93
23170;BME280;11753;43.144;24.714;2023-02-04T04:47:26;99032.56;;;5.39;93.74
23170;BME280;11753;43.144;24.714;2023-02-04T04:48:27;99031.88;;;5.37;94.57
23170;BME280;11753;43.144;24.714;2023-02-04T04:49:30;99038.47;;;5.41;94.18
23170;BME280;11753;43.144;24.714;2023-02-04T04:50:31;99038.75;;;5.48;94.24
23170;BME280;11753;43.144;24.714;2023-02-04T04:51:32;99038.19;;;5.35;95.06
23170;BME280;11753;43.144;24.714;2023-02-04T04:52:32;99046.44;;;5.40;95.08
23170;BME280;11753;43.144;24.714;2023-02-04T04:53:33;99043.53;;;5.23;96.38
23170;BME280;11753;43.144;24.714;2023-02-04T04:54:34;99047.63;;;5.16;96.84
23170;BME280;11753;43.144;24.714;2023-02-04T04:55:34;99051.19;;;5.15;97.28
23170;BME280;11753;43.144;24.714;2023-02-04T04:56:35;99051.28;;;5.04;98.01
23170;BME280;11753;43.144;24.714;2023-02-04T04:57:36;99057.50;;;4.82;99.24
23170;BME280;11753;43.144;24.714;2023-02-04T04:58:37;99062.66;;;4.93;99.69
23170;BME280;11753;43.144;24.714;2023-02-04T04:59:38;99058.19;;;4.84;99.14
23170;BME280;11753;43.144;24.714;2023-02-04T05:00:39;99053.69;;;4.86;99.21
23170;BME280;11753;43.144;24.714;2023-02-04T05:01:40;99068.34;;;4.57;100.00
23170;BME280;11753;43.144;24.714;2023-02-04T05:02:42;99059.19;;;4.62;100.00
23170;BME280;11753;43.144;24.714;2023-02-04T05:03:43;99069.47;;;4.64;100.00
23170;BME280;11753;43.144;24.714;2023-02-04T05:04:44;99069.13;;;4.48;100.00
23170;BME280;11753;43.144;24.714;2023-02-04T05:05:45;99067.97;;;4.40;100.00
23170;BME280;11753;43.144;24.714;2023-02-04T05:06:46;99072.00;;;4.45;100.00
23170;BME280;11753;43.144;24.714;2023-02-04T05:07:47;99085.38;;;4.40;100.00
23170;BME280;11753;43.144;24.714;2023-02-04T05:08:48;99082.28;;;4.46;100.00
23170;BME280;11753;43.144;24.714;2023-02-04T05:09:49;99083.59;;;4.40;100.00
23170;BME280;11753;43.144;24.714;2023-02-04T05:10:49;99077.69;;;4.18;100.00
23170;BME280;11753;43.144;24.714;2023-02-04T05:11:50;99079.41;;;4.28;100.00
23170;BME280;11753;43.144;24.714;2023-02-04T05:12:51;99085.38;;;4.19;100.00
23170;BME280;11753;43.144;24.714;2023-02-04T05:13:52;99079.66;;;4.25;100.00
23170;BME280;11753;43.144;24.714;2023-02-04T05:14:53;99082.00;;;4.28;100.00
23170;BME280;11753;43.144;24.714;2023-02-04T05:15:54;99074.19;;;4.28;100.00
23170;BME280;11753;43.144;24.714;2023-02-04T05:16:55;99081.31;;;4.26;100.00
23170;BME280;11753;43.144;24.714;2023-02-04T05:17:56;99076.56;;;4.31;100.00
23170;BME280;11753;43.144;24.714;2023-02-04T05:18:58;99073.19;;;4.40;100.00
23170;BME280;11753;43.144;24.714;2023-02-04T05:19:59;99061.81;;;4.41;100.00
23170;BME280;11753;43.144;24.714;2023-02-04T05:21:03;99067.47;;;4.26;100.00
23170;BME280;11753;43.144;24.714;2023-02-04T05:22:04;99076.88;;;4.17;100.00
23170;BME280;11753;43.144;24.714;2023-02-04T05:23:04;99072.81;;;4.24;100.00
23170;BME280;11753;43.144;24.714;2023-02-04T05:24:05;99076.94;;;4.27;100.00
23170;BME280;11753;43.144;24.714;2023-02-04T05:25:06;99078.56;;;4.28;100.00
23170;BME280;11753;43.144;24.714;2023-02-04T05:26:07;99086.19;;;4.20;100.00